Time;durP1;ratioP1;P1;durP2;ratioP2;P2;SDS_P1;SDS_P2;PMS_P1;PMS_P2;Temp;Humidity;BMP_temperature;BMP_pressure;BME280_temperature;BME280_humidity;BME280_pressure;Samples;Min_cycle;Max_cycle;Signal;HPM_P1;HPM_P2
2024/04/18 00:01:33;;;;;;;26.35;12.20;;;;;;;;;;4946249;29;20046;-72
2024/04/18 00:03:59;;;;;;;30.00;14.45;;;;;;;;;;4947674;28;20079;-73
2024/04/18 00:06:25;;;;;;;39.13;17.15;;;;;;;;;;4917338;29;20048;-72
2024/04/18 00:08:51;;;;;;;35.88;16.90;;;;;;;;;;4933929;29;20160;-72
2024/04/18 00:11:26;;;;;;;35.72;16.90;;;;;;;;;;4905015;29;20043;-72
2024/04/18 00:13:52;;;;;;;36.28;16.92;;;;;;;;;;4941960;29;20048;-72
2024/04/18 00:16:36;;;;;;;32.13;16.13;;;;;;;;;;4945219;29;20040;-73
2024/04/18 00:19:15;;;;;;;34.50;15.55;;;;;;;;;;4914479;29;20516;-72
2024/04/18 00:21:58;;;;;;;20.45;12.98;;;;;;;;;;4943228;29;20059;-72
2024/04/18 00:24:27;;;;;;;28.10;11.82;;;;;;;;;;4939097;29;20584;-73
2024/04/18 00:26:53;;;;;;;28.20;11.43;;;;;;;;;;4943533;29;20039;-72
2024/04/18 00:29:48;;;;;;;20.30;11.15;;;;;;;;;;4943040;29;20576;-73
2024/04/18 00:32:37;;;;;;;28.02;12.48;;;;;;;;;;4943857;29;20040;-74
2024/04/18 00:35:22;;;;;;;21.67;11.95;;;;;;;;;;4949744;29;20115;-74
2024/04/18 00:38:15;;;;;;;16.80;10.63;;;;;;;;;;4923922;29;20039;-73
2024/04/18 00:40:45;;;;;;;23.15;11.70;;;;;;;;;;4951904;29;20393;-73
2024/04/18 00:43:19;;;;;;;15.80;10.15;;;;;;;;;;4946375;28;20065;-72
2024/04/18 00:45:52;;;;;;;17.40;9.48;;;;;;;;;;4942898;29;20043;-72
2024/04/18 00:48:24;;;;;;;19.17;9.38;;;;;;;;;;4942613;29;20114;-73
2024/04/18 00:50:50;;;;;;;14.52;9.05;;;;;;;;;;4946771;29;20050;-73
2024/04/18 00:53:20;;;;;;;19.27;9.65;;;;;;;;;;4943209;29;20051;-72
2024/04/18 00:55:49;;;;;;;17.15;9.57;;;;;;;;;;4950610;29;20421;-73
2024/04/18 00:58:15;;;;;;;20.13;8.90;;;;;;;;;;4953040;28;20039;-73
2024/04/18 01:00:44;;;;;;;28.05;10.52;;;;;;;;;;4948836;29;20055;-72
2024/04/18 01:03:29;;;;;;;18.60;10.25;;;;;;;;;;4943090;29;20551;-72
2024/04/18 01:06:08;;;;;;;22.33;10.32;;;;;;;;;;4943939;29;20046;-72
2024/04/18 01:08:54;;;;;;;15.45;8.95;;;;;;;;;;4942379;29;20038;-72
2024/04/18 01:11:30;;;;;;;19.63;9.35;;;;;;;;;;4942774;29;20047;-72
2024/04/18 01:14:05;;;;;;;14.73;10.32;;;;;;;;;;4941647;28;20040;-72
2024/04/18 01:16:51;;;;;;;26.02;11.73;;;;;;;;;;4946053;28;20603;-71
2024/04/18 01:19:17;;;;;;;28.48;12.77;;;;;;;;;;4940738;29;20035;-72
2024/04/18 01:21:43;;;;;;;14.20;7.90;;;;;;;;;;4945604;29;20117;-72
2024/04/18 01:24:13;;;;;;;14.98;7.47;;;;;;;;;;4938776;29;20078;-72
2024/04/18 01:26:39;;;;;;;18.05;8.30;;;;;;;;;;4943003;29;20050;-72
2024/04/18 01:29:05;;;;;;;16.77;8.88;;;;;;;;;;4947989;29;20050;-73
2024/04/18 01:31:31;;;;;;;18.60;10.25;;;;;;;;;;4940455;29;20051;-72
2024/04/18 01:33:57;;;;;;;31.35;18.15;;;;;;;;;;4940297;28;20051;-72
2024/04/18 01:36:23;;;;;;;30.65;14.77;;;;;;;;;;4945229;29;20103;-72
2024/04/18 01:38:52;;;;;;;29.60;14.48;;;;;;;;;;4943214;29;20039;-73
2024/04/18 01:41:29;;;;;;;20.77;15.27;;;;;;;;;;4943612;29;20139;-72
2024/04/18 01:43:58;;;;;;;27.98;13.15;;;;;;;;;;4940176;29;20043;-72
2024/04/18 01:46:43;;;;;;;18.92;12.07;;;;;;;;;;4943993;29;20043;-73
2024/04/18 01:49:29;;;;;;;17.77;11.57;;;;;;;;;;4943096;29;20098;-73
2024/04/18 01:51:55;;;;;;;24.17;12.18;;;;;;;;;;4948983;29;20082;-71
2024/04/18 01:54:30;;;;;;;17.20;11.75;;;;;;;;;;4939365;28;20421;-72
2024/04/18 01:56:56;;;;;;;17.13;12.32;;;;;;;;;;4950397;28;20039;-72
2024/04/18 01:59:22;;;;;;;18.35;9.68;;;;;;;;;;4928407;29;20035;-73
2024/04/18 02:01:48;;;;;;;20.80;9.80;;;;;;;;;;4944122;29;20071;-73
2024/04/18 02:04:17;;;;;;;19.42;10.68;;;;;;;;;;4943865;29;20047;-73
2024/04/18 02:06:44;;;;;;;19.15;9.60;;;;;;;;;;4940142;29;20199;-73
2024/04/18 02:09:21;;;;;;;10.52;9.32;;;;;;;;;;4946384;29;20047;-73
2024/04/18 02:11:51;;;;;;;14.30;9.65;;;;;;;;;;4942830;29;20186;-72
2024/04/18 02:14:38;;;;;;;15.85;9.57;;;;;;;;;;4941514;29;20058;-72
2024/04/18 02:17:04;;;;;;;25.00;12.85;;;;;;;;;;4950303;29;20039;-73
2024/04/18 02:19:31;;;;;;;21.83;14.45;;;;;;;;;;4944195;29;20039;-74
2024/04/18 02:25:30;;;;;;;22.65;15.07;;;;;;;;;;4952340;28;20110;-72
2024/04/18 02:28:05;;;;;;;30.77;16.83;;;;;;;;;;4947516;28;20047;-73
2024/04/18 02:30:32;;;;;;;25.17;15.32;;;;;;;;;;4948056;28;20030;-72
2024/04/18 02:33:19;;;;;;;20.83;15.05;;;;;;;;;;4955533;28;20418;-74
2024/04/18 02:35:49;;;;;;;29.88;17.52;;;;;;;;;;4935871;28;20371;-73
2024/04/18 02:38:34;;;;;;;29.33;16.98;;;;;;;;;;4967749;28;20453;-73
2024/04/18 02:41:02;;;;;;;25.33;16.23;;;;;;;;;;4918421;29;20594;-73
2024/04/18 02:43:49;;;;;;;25.40;15.68;;;;;;;;;;4928825;29;20085;-73
2024/04/18 02:46:15;;;;;;;31.10;17.92;;;;;;;;;;4937188;29;20095;-72
2024/04/18 02:48:40;;;;;;;30.90;17.40;;;;;;;;;;4964994;28;20047;-73
2024/04/18 02:51:22;;;;;;;32.20;20.40;;;;;;;;;;4967374;28;20162;-73
2024/04/18 02:54:09;;;;;;;25.90;17.15;;;;;;;;;;4965431;28;20043;-73
2024/04/18 02:56:35;;;;;;;29.58;17.98;;;;;;;;;;4951378;28;20590;-73
2024/04/18 02:59:10;;;;;;;25.67;16.88;;;;;;;;;;4957903;28;20134;-74
2024/04/18 03:01:51;;;;;;;27.75;17.23;;;;;;;;;;4972529;28;20549;-73
2024/04/18 03:04:18;;;;;;;26.42;18.23;;;;;;;;;;4968863;28;20055;-72
2024/04/18 03:06:47;;;;;;;35.65;18.75;;;;;;;;;;4965089;28;20563;-73
2024/04/18 03:09:14;;;;;;;28.25;17.95;;;;;;;;;;4964752;28;20039;-73
2024/04/18 03:11:53;;;;;;;32.67;19.63;;;;;;;;;;4949611;28;20152;-73
2024/04/18 03:14:41;;;;;;;27.40;18.58;;;;;;;;;;4966464;28;20047;-73
2024/04/18 03:17:07;;;;;;;28.63;18.85;;;;;;;;;;4972883;28;20548;-73
2024/04/18 03:19:52;;;;;;;31.88;19.83;;;;;;;;;;4960644;28;20043;-73
2024/04/18 03:22:30;;;;;;;33.08;19.17;;;;;;;;;;4969601;28;20145;-73
2024/04/18 03:25:00;;;;;;;26.27;17.80;;;;;;;;;;4947493;29;20508;-74
2024/04/18 03:27:29;;;;;;;32.92;18.45;;;;;;;;;;4969596;28;20047;-73
2024/04/18 03:29:55;;;;;;;23.83;17.80;;;;;;;;;;4966529;28;20150;-73
2024/04/18 03:32:36;;;;;;;32.30;18.83;;;;;;;;;;4968849;28;20050;-74
2024/04/18 03:35:03;;;;;;;33.03;19.50;;;;;;;;;;4948645;29;20067;-73
2024/04/18 03:37:32;;;;;;;27.40;19.15;;;;;;;;;;4950805;28;20493;-74
2024/04/18 03:40:19;;;;;;;28.83;19.42;;;;;;;;;;4969587;28;20129;-73
2024/04/18 03:43:01;;;;;;;31.83;21.77;;;;;;;;;;4963233;28;20091;-73
2024/04/18 03:45:27;;;;;;;27.48;19.17;;;;;;;;;;4961140;28;20051;-73
2024/04/18 03:47:53;;;;;;;31.17;19.00;;;;;;;;;;4968415;28;20136;-73
2024/04/18 03:50:39;;;;;;;39.85;21.85;;;;;;;;;;4939864;28;20077;-73
2024/04/18 03:53:19;;;;;;;33.47;19.20;;;;;;;;;;4923532;28;20496;-72
2024/04/18 03:55:45;;;;;;;28.08;19.45;;;;;;;;;;4934593;28;20043;-72
2024/04/18 03:58:13;;;;;;;39.33;19.92;;;;;;;;;;4936069;29;20078;-73
2024/04/18 04:00:52;;;;;;;33.85;19.08;;;;;;;;;;4941469;28;20412;-73
2024/04/18 04:03:19;;;;;;;28.00;19.05;;;;;;;;;;4935898;28;20071;-72
2024/04/18 04:05:45;;;;;;;27.25;18.90;;;;;;;;;;4971194;28;20066;-73
2024/04/18 04:08:11;;;;;;;27.55;18.25;;;;;;;;;;4950415;28;20463;-73
2024/04/18 04:10:43;;;;;;;31.70;19.73;;;;;;;;;;4963717;28;20053;-72
2024/04/18 04:13:09;;;;;;;25.70;18.92;;;;;;;;;;4960663;28;20472;-73
2024/04/18 04:15:48;;;;;;;21.85;17.80;;;;;;;;;;4962159;28;20035;-74
2024/04/18 04:18:33;;;;;;;19.75;17.58;;;;;;;;;;4946043;28;20150;-74
2024/04/18 04:21:18;;;;;;;26.80;17.90;;;;;;;;;;4966935;28;20067;-73
2024/04/18 04:23:44;;;;;;;27.25;19.60;;;;;;;;;;4925572;29;20172;-74
2024/04/18 04:26:12;;;;;;;34.38;19.80;;;;;;;;;;4962916;28;20134;-74
2024/04/18 04:28:39;;;;;;;25.05;17.23;;;;;;;;;;4946333;28;20032;-73
2024/04/18 04:31:08;;;;;;;20.55;17.55;;;;;;;;;;4940406;28;20137;-74
2024/04/18 04:33:37;;;;;;;28.67;17.52;;;;;;;;;;4906452;28;20051;-73
2024/04/18 04:39:11;;;;;;;26.52;18.10;;;;;;;;;;4960880;28;20122;-73
2024/04/18 04:41:42;;;;;;;;;;;;;;;;;;4963610;28;20143;-73
2024/04/18 04:44:08;;;;;;;25.02;16.88;;;;;;;;;;4945710;29;19930;-74
2024/04/18 04:46:56;;;;;;;29.35;16.00;;;;;;;;;;4948081;28;20110;-73
2024/04/18 04:49:48;;;;;;;21.55;17.77;;;;;;;;;;4930884;29;20133;-73
2024/04/18 04:52:35;;;;;;;27.67;18.88;;;;;;;;;;4947339;28;20435;-74
2024/04/18 04:55:18;;;;;;;26.92;18.73;;;;;;;;;;4938452;28;20413;-74
2024/04/18 04:57:45;;;;;;;25.00;18.35;;;;;;;;;;4948408;29;20047;-74
2024/04/18 05:00:43;;;;;;;27.58;19.90;;;;;;;;;;4958704;28;20086;-74
2024/04/18 05:03:10;;;;;;;27.48;17.98;;;;;;;;;;4933762;28;20051;-73
2024/04/18 05:06:23;;;;;;;23.50;16.60;;;;;;;;;;4963019;28;20050;-73
2024/04/18 05:09:21;;;;;;;22.52;18.40;;;;;;;;;;4938338;28;20047;-73
2024/04/18 05:11:47;;;;;;;26.98;19.80;;;;;;;;;;4918799;28;20074;-74
2024/04/18 05:14:31;;;;;;;27.65;18.70;;;;;;;;;;4962768;28;20055;-72
2024/04/18 05:17:20;;;;;;;27.65;20.35;;;;;;;;;;4961768;28;20046;-72
2024/04/18 05:20:07;;;;;;;23.23;17.85;;;;;;;;;;4968604;28;20047;-73
2024/04/18 05:22:37;;;;;;;24.80;17.50;;;;;;;;;;4969035;28;20042;-71
2024/04/18 05:25:03;;;;;;;23.67;16.42;;;;;;;;;;4932412;28;20109;-73
2024/04/18 05:27:32;;;;;;;23.67;18.77;;;;;;;;;;4949235;28;20113;-73
2024/04/18 05:32:42;;;;;;;18.90;16.38;;;;;;;;;;4946618;28;20053;-73
2024/04/18 05:35:08;;;;;;;22.80;17.63;;;;;;;;;;4945031;28;20035;-73
2024/04/18 05:37:34;;;;;;;24.95;17.45;;;;;;;;;;4946529;28;20502;-73
2024/04/18 05:40:01;;;;;;;20.20;16.58;;;;;;;;;;4959888;28;20039;-73
2024/04/18 05:42:29;;;;;;;21.10;16.42;;;;;;;;;;4913664;28;20086;-72
2024/04/18 05:45:07;;;;;;;19.65;16.55;;;;;;;;;;4965129;28;20057;-72
2024/04/18 05:47:33;;;;;;;17.67;15.82;;;;;;;;;;4967614;28;20045;-72
2024/04/18 05:49:59;;;;;;;19.92;16.40;;;;;;;;;;4943338;29;20039;-72
2024/04/18 05:52:25;;;;;;;21.80;14.88;;;;;;;;;;4966479;28;20054;-72
2024/04/18 05:54:51;;;;;;;21.02;16.55;;;;;;;;;;4963776;28;20042;-73
2024/04/18 05:57:38;;;;;;;19.50;15.27;;;;;;;;;;4962133;28;20574;-74
2024/04/18 06:00:29;;;;;;;16.80;15.18;;;;;;;;;;4953207;28;20066;-76
2024/04/18 06:03:01;;;;;;;22.45;15.93;;;;;;;;;;4920097;29;20047;-76
2024/04/18 06:05:50;;;;;;;17.67;15.55;;;;;;;;;;4939892;28;20655;-74
2024/04/18 06:08:28;;;;;;;21.05;15.32;;;;;;;;;;4947989;28;20054;-75
2024/04/18 06:10:55;;;;;;;23.10;17.20;;;;;;;;;;4932603;28;20392;-74
2024/04/18 06:13:25;;;;;;;15.80;14.18;;;;;;;;;;4947188;28;20094;-75
2024/04/18 06:15:51;;;;;;;16.17;14.25;;;;;;;;;;4917532;28;20446;-75
2024/04/18 06:18:18;;;;;;;16.70;14.68;;;;;;;;;;4911566;28;20062;-74
2024/04/18 06:20:45;;;;;;;19.45;14.15;;;;;;;;;;4933348;28;20039;-76
2024/04/18 06:23:11;;;;;;;21.50;16.50;;;;;;;;;;4948846;28;20051;-75
2024/04/18 06:25:37;;;;;;;17.20;14.55;;;;;;;;;;4945327;28;20133;-74
2024/04/18 06:28:09;;;;;;;15.05;12.85;;;;;;;;;;4937538;28;20126;-73
2024/04/18 06:31:00;;;;;;;20.60;14.20;;;;;;;;;;4964064;28;20054;-75
2024/04/18 06:33:34;;;;;;;15.32;12.90;;;;;;;;;;4945835;28;20054;-75
2024/04/18 06:36:01;;;;;;;17.52;12.05;;;;;;;;;;4931028;29;20039;-74
2024/04/18 06:38:28;;;;;;;13.93;11.00;;;;;;;;;;4945016;28;20508;-75
2024/04/18 06:40:54;;;;;;;12.88;11.57;;;;;;;;;;4964772;28;20043;-74
2024/04/18 06:43:39;;;;;;;15.07;11.82;;;;;;;;;;4963847;28;20078;-74
2024/04/18 06:46:05;;;;;;;12.18;10.82;;;;;;;;;;4950886;28;20035;-74
2024/04/18 06:48:32;;;;;;;11.40;10.02;;;;;;;;;;4919598;28;20051;-75
2024/04/18 06:50:59;;;;;;;9.98;9.10;;;;;;;;;;4967903;28;20512;-74
2024/04/18 06:53:25;;;;;;;11.00;9.50;;;;;;;;;;4919140;28;20054;-75
2024/04/18 06:55:51;;;;;;;10.35;9.38;;;;;;;;;;4948282;28;20038;-74
2024/04/18 06:58:17;;;;;;;10.93;9.65;;;;;;;;;;4948013;28;20048;-75
2024/04/18 07:00:43;;;;;;;10.00;8.88;;;;;;;;;;4935188;28;20058;-75
2024/04/18 07:03:11;;;;;;;9.35;7.65;;;;;;;;;;4920405;28;20070;-75
2024/04/18 07:05:50;;;;;;;11.98;8.75;;;;;;;;;;4950935;28;20431;-75
2024/04/18 07:08:25;;;;;;;8.38;7.57;;;;;;;;;;4948001;28;20055;-75
2024/04/18 07:10:51;;;;;;;8.32;7.45;;;;;;;;;;4959864;28;20042;-74
2024/04/18 07:13:28;;;;;;;8.88;8.07;;;;;;;;;;4946784;28;20059;-75
2024/04/18 07:15:56;;;;;;;8.25;7.40;;;;;;;;;;4964581;28;20090;-75
2024/04/18 07:18:40;;;;;;;13.35;7.32;;;;;;;;;;4959549;28;20073;-75
2024/04/18 07:21:07;;;;;;;10.05;7.35;;;;;;;;;;4947922;28;20491;-75
2024/04/18 07:23:37;;;;;;;12.07;6.70;;;;;;;;;;4951605;28;20106;-75
2024/04/18 07:26:13;;;;;;;7.03;6.35;;;;;;;;;;4971178;28;20067;-74
2024/04/18 07:28:39;;;;;;;8.98;7.30;;;;;;;;;;4938499;28;20102;-75
2024/04/18 07:31:05;;;;;;;8.07;7.28;;;;;;;;;;4932111;28;20050;-75
2024/04/18 07:33:33;;;;;;;6.90;6.25;;;;;;;;;;4948291;28;20047;-74
2024/04/18 07:36:29;;;;;;;7.00;6.40;;;;;;;;;;4957219;28;20047;-73
2024/04/18 07:39:43;;;;;;;6.82;6.32;;;;;;;;;;4939243;28;20047;-74
2024/04/18 07:42:12;;;;;;;7.05;5.75;;;;;;;;;;4946004;28;20055;-74
2024/04/18 07:44:38;;;;;;;5.68;4.93;;;;;;;;;;4951168;28;20418;-74
2024/04/18 07:47:06;;;;;;;6.43;4.43;;;;;;;;;;4937176;28;20042;-74
2024/04/18 07:49:33;;;;;;;7.03;6.32;;;;;;;;;;4966543;28;20101;-73
2024/04/18 07:52:01;;;;;;;8.77;6.13;;;;;;;;;;4937227;28;20134;-74
2024/04/18 07:54:28;;;;;;;6.63;6.05;;;;;;;;;;4949798;28;20047;-73
2024/04/18 07:56:58;;;;;;;6.43;5.50;;;;;;;;;;4947423;28;20421;-75
2024/04/18 07:59:43;;;;;;;9.77;5.60;;;;;;;;;;4965266;28;20041;-74
2024/04/18 08:02:12;;;;;;;6.25;5.65;;;;;;;;;;4940860;28;20435;-74
2024/04/18 08:05:04;;;;;;;5.55;4.97;;;;;;;;;;4942701;28;20288;-74
2024/04/18 08:07:33;;;;;;;4.15;3.75;;;;;;;;;;4964660;28;20535;-73
2024/04/18 08:10:01;;;;;;;5.30;4.90;;;;;;;;;;4911164;28;20034;-74
2024/04/18 08:12:28;;;;;;;5.65;4.70;;;;;;;;;;4954700;28;20101;-74
2024/04/18 08:14:54;;;;;;;4.72;4.03;;;;;;;;;;4921173;28;20046;-74
2024/04/18 08:17:22;;;;;;;4.63;3.92;;;;;;;;;;4928126;28;20043;-74
2024/04/18 08:19:48;;;;;;;9.27;4.75;;;;;;;;;;4921704;28;20042;-74
2024/04/18 08:22:14;;;;;;;7.10;4.57;;;;;;;;;;4922219;28;20050;-73
2024/04/18 08:24:41;;;;;;;5.28;4.78;;;;;;;;;;4970523;28;20039;-74
2024/04/18 08:27:08;;;;;;;8.70;4.60;;;;;;;;;;4948060;28;20074;-75
2024/04/18 08:29:35;;;;;;;7.43;4.45;;;;;;;;;;4971459;28;20035;-74
2024/04/18 08:32:02;;;;;;;8.45;4.45;;;;;;;;;;4937719;28;20039;-74
2024/04/18 08:34:30;;;;;;;4.78;4.35;;;;;;;;;;4936248;28;20062;-73
2024/04/18 08:36:56;;;;;;;5.55;4.60;;;;;;;;;;4942497;29;20035;-72
2024/04/18 08:39:22;;;;;;;7.65;5.35;;;;;;;;;;4949380;28;20038;-72
2024/04/18 08:41:49;;;;;;;5.20;4.70;;;;;;;;;;4952941;28;20058;-72
2024/04/18 08:44:15;;;;;;;6.18;4.90;;;;;;;;;;4962846;28;20051;-73
2024/04/18 08:46:41;;;;;;;6.20;5.60;;;;;;;;;;4937647;28;20064;-73
2024/04/18 08:49:07;;;;;;;7.25;4.82;;;;;;;;;;4968955;28;20518;-73
2024/04/18 08:54:20;;;;;;;11.05;5.38;;;;;;;;;;4949248;28;20424;-72
2024/04/18 08:56:51;;;;;;;4.50;3.33;;;;;;;;;;4943517;28;20085;-73
2024/04/18 08:59:37;;;;;;;5.30;3.83;;;;;;;;;;4942151;29;20035;-73
2024/04/18 09:02:03;;;;;;;4.68;3.92;;;;;;;;;;4948453;28;20109;-73
2024/04/18 09:04:29;;;;;;;9.88;4.05;;;;;;;;;;4935945;28;20130;-72
2024/04/18 09:06:56;;;;;;;4.97;3.95;;;;;;;;;;4971184;28;20051;-73
2024/04/18 09:09:22;;;;;;;12.25;3.55;;;;;;;;;;4915803;28;20106;-73
2024/04/18 09:11:48;;;;;;;5.28;4.78;;;;;;;;;;4927505;28;20525;-73
2024/04/18 09:14:14;;;;;;;4.97;4.60;;;;;;;;;;4966386;28;20090;-73
2024/04/18 09:16:40;;;;;;;9.00;4.70;;;;;;;;;;4967316;28;20137;-73
2024/04/18 09:19:09;;;;;;;5.47;4.97;;;;;;;;;;4960685;28;20047;-73
2024/04/18 09:21:37;;;;;;;4.60;4.18;;;;;;;;;;4946734;28;20047;-73
2024/04/18 09:24:09;;;;;;;5.03;4.57;;;;;;;;;;4948444;28;20131;-73
2024/04/18 09:26:37;;;;;;;4.18;3.60;;;;;;;;;;4938129;28;20038;-73
2024/04/18 09:29:04;;;;;;;3.13;2.92;;;;;;;;;;4911725;29;20094;-73
2024/04/18 09:31:30;;;;;;;6.68;3.83;;;;;;;;;;4945178;28;20046;-73
2024/04/18 09:33:56;;;;;;;4.53;4.07;;;;;;;;;;4943301;28;20494;-73
2024/04/18 09:36:24;;;;;;;3.70;3.30;;;;;;;;;;4943716;28;20466;-73
2024/04/18 09:38:58;;;;;;;3.58;3.38;;;;;;;;;;4910072;29;20086;-74
2024/04/18 09:41:24;;;;;;;4.30;3.30;;;;;;;;;;4935062;28;20050;-74
2024/04/18 09:43:59;;;;;;;4.07;3.20;;;;;;;;;;4930549;29;20130;-75
2024/04/18 09:46:25;;;;;;;3.10;2.88;;;;;;;;;;4934746;28;20054;-74
2024/04/18 09:48:52;;;;;;;4.65;2.90;;;;;;;;;;4913946;29;20047;-75
2024/04/18 09:51:19;;;;;;;3.17;2.63;;;;;;;;;;4934556;28;20053;-74
2024/04/18 09:53:55;;;;;;;3.30;3.10;;;;;;;;;;4944072;28;20047;-75
2024/04/18 09:56:23;;;;;;;3.17;2.53;;;;;;;;;;4921833;28;20573;-74
2024/04/18 09:58:54;;;;;;;3.38;3.08;;;;;;;;;;4934617;29;20043;-75
2024/04/18 10:01:29;;;;;;;2.88;2.67;;;;;;;;;;4924956;28;20535;-75
2024/04/18 10:03:55;;;;;;;3.28;2.90;;;;;;;;;;4928815;29;20109;-74
2024/04/18 10:06:25;;;;;;;3.03;2.72;;;;;;;;;;4919707;28;20114;-76
2024/04/18 10:08:52;;;;;;;2.90;2.70;;;;;;;;;;4921540;28;20074;-75
2024/04/18 10:11:21;;;;;;;5.05;2.50;;;;;;;;;;4917203;28;20043;-75
2024/04/18 10:13:49;;;;;;;2.78;2.58;;;;;;;;;;4930262;28;20185;-76
2024/04/18 10:16:21;;;;;;;2.80;2.58;;;;;;;;;;4933023;28;20067;-75
2024/04/18 10:18:53;;;;;;;3.50;2.90;;;;;;;;;;4924294;28;20039;-75
2024/04/18 10:21:21;;;;;;;5.45;2.30;;;;;;;;;;4946319;29;20054;-74
2024/04/18 10:23:52;;;;;;;3.47;3.15;;;;;;;;;;4953989;29;20067;-75
2024/04/18 10:26:21;;;;;;;2.97;2.50;;;;;;;;;;4930839;29;20050;-75
2024/04/18 10:29:20;;;;;;;4.55;2.78;;;;;;;;;;4965729;28;20067;-75
2024/04/18 10:31:59;;;;;;;2.40;2.30;;;;;;;;;;4948331;29;20047;-73
2024/04/18 10:34:29;;;;;;;3.20;2.90;;;;;;;;;;4912496;29;20047;-73
2024/04/18 10:36:58;;;;;;;2.50;2.40;;;;;;;;;;4922894;29;20039;-74
2024/04/18 10:39:34;;;;;;;2.97;2.65;;;;;;;;;;4917858;29;20075;-73
2024/04/18 10:42:02;;;;;;;2.85;2.60;;;;;;;;;;4945544;29;20111;-75
2024/04/18 10:44:28;;;;;;;2.83;2.63;;;;;;;;;;4927834;29;20043;-73
2024/04/18 10:46:57;;;;;;;2.80;2.60;;;;;;;;;;4930685;29;20051;-75
2024/04/18 10:49:49;;;;;;;2.85;2.65;;;;;;;;;;4943069;28;20059;-75
2024/04/18 10:52:25;;;;;;;2.90;2.70;;;;;;;;;;4937807;29;20048;-75
2024/04/18 10:54:56;;;;;;;2.72;2.50;;;;;;;;;;4901231;29;20039;-75
2024/04/18 10:57:23;;;;;;;3.13;2.88;;;;;;;;;;4931047;29;20126;-76
2024/04/18 10:59:51;;;;;;;2.88;2.67;;;;;;;;;;4949833;29;20034;-75
2024/04/18 11:02:23;;;;;;;3.05;2.95;;;;;;;;;;4911856;29;20051;-76
2024/04/18 11:04:49;;;;;;;2.90;2.67;;;;;;;;;;4916614;29;20078;-77
2024/04/18 11:07:23;;;;;;;2.90;2.70;;;;;;;;;;4932896;29;20056;-74
2024/04/18 11:09:49;;;;;;;2.53;2.33;;;;;;;;;;4921794;29;20075;-76
2024/04/18 11:12:15;;;;;;;3.20;3.00;;;;;;;;;;4903612;29;20047;-76
2024/04/18 11:14:41;;;;;;;5.47;3.03;;;;;;;;;;4935783;29;20086;-76
2024/04/18 11:17:07;;;;;;;3.83;3.40;;;;;;;;;;4935082;29;20469;-75
2024/04/18 11:19:32;;;;;;;3.00;2.80;;;;;;;;;;4943955;29;20122;-77
2024/04/18 11:21:59;;;;;;;3.50;3.20;;;;;;;;;;4939668;29;20051;-75
2024/04/18 11:24:25;;;;;;;3.70;3.40;;;;;;;;;;4940389;29;20062;-76
2024/04/18 11:26:51;;;;;;;3.10;2.90;;;;;;;;;;4935074;29;20051;-76
2024/04/18 11:29:17;;;;;;;4.80;3.10;;;;;;;;;;4894455;29;20146;-77
2024/04/18 11:31:43;;;;;;;2.08;1.98;;;;;;;;;;4941563;29;20079;-76
2024/04/18 11:34:09;;;;;;;3.70;3.35;;;;;;;;;;4918316;29;20047;-76
2024/04/18 11:36:37;;;;;;;3.50;3.30;;;;;;;;;;4923476;29;20046;-76
2024/04/18 11:39:05;;;;;;;3.40;3.10;;;;;;;;;;4897194;29;20054;-76
2024/04/18 11:41:31;;;;;;;5.30;3.35;;;;;;;;;;4916464;29;20642;-75
2024/04/18 11:44:04;;;;;;;3.65;3.35;;;;;;;;;;4911237;28;20473;-74
2024/04/18 11:46:33;;;;;;;3.25;3.05;;;;;;;;;;4928487;29;20537;-74
2024/04/18 11:48:59;;;;;;;3.10;2.90;;;;;;;;;;4914550;29;20117;-75
2024/04/18 11:51:31;;;;;;;3.95;3.65;;;;;;;;;;4913561;29;20047;-75
2024/04/18 11:54:14;;;;;;;4.15;3.75;;;;;;;;;;4922993;29;20044;-75
2024/04/18 11:56:40;;;;;;;7.05;3.72;;;;;;;;;;4934865;29;20461;-75
2024/04/18 11:59:24;;;;;;;4.40;4.00;;;;;;;;;;4938381;29;20044;-75
2024/04/18 12:01:51;;;;;;;4.18;3.83;;;;;;;;;;4941818;29;20531;-75
2024/04/18 12:04:19;;;;;;;5.50;3.00;;;;;;;;;;4940177;29;20469;-74
2024/04/18 12:06:45;;;;;;;3.38;3.13;;;;;;;;;;4946422;29;20039;-74
2024/04/18 12:09:26;;;;;;;2.72;2.60;;;;;;;;;;4937239;29;20078;-76
2024/04/18 12:11:52;;;;;;;3.03;2.83;;;;;;;;;;4909850;29;20058;-76
2024/04/18 12:14:18;;;;;;;4.38;4.07;;;;;;;;;;4934137;29;20052;-75
2024/04/18 12:16:57;;;;;;;3.92;3.63;;;;;;;;;;4938296;29;20075;-76
2024/04/18 12:19:42;;;;;;;3.58;3.30;;;;;;;;;;4932438;29;20571;-76
2024/04/18 12:22:30;;;;;;;3.22;3.03;;;;;;;;;;4932358;29;20059;-76
2024/04/18 12:25:15;;;;;;;3.60;3.33;;;;;;;;;;4931336;29;20059;-75
2024/04/18 12:27:46;;;;;;;3.38;3.17;;;;;;;;;;4917597;29;20043;-76
2024/04/18 12:30:30;;;;;;;3.55;3.28;;;;;;;;;;4918391;29;20430;-76
2024/04/18 12:33:15;;;;;;;3.85;3.55;;;;;;;;;;4939135;29;20413;-76
2024/04/18 12:35:42;;;;;;;3.70;3.40;;;;;;;;;;4936382;29;20047;-76
2024/04/18 12:38:10;;;;;;;3.15;2.95;;;;;;;;;;4926037;29;20047;-75
2024/04/18 12:40:47;;;;;;;2.58;2.38;;;;;;;;;;4915531;29;20051;-75
2024/04/18 12:43:53;;;;;;;2.60;2.40;;;;;;;;;;4918715;29;20056;-75
2024/04/18 12:46:38;;;;;;;2.70;2.60;;;;;;;;;;4919920;29;20071;-76
2024/04/18 12:49:09;;;;;;;2.78;2.53;;;;;;;;;;4934506;29;20051;-76
2024/04/18 12:51:35;;;;;;;3.17;2.90;;;;;;;;;;4920356;29;20067;-75
2024/04/18 12:54:00;;;;;;;3.13;2.50;;;;;;;;;;4925822;29;20058;-74
2024/04/18 12:56:47;;;;;;;3.05;2.60;;;;;;;;;;4931210;29;20122;-75
2024/04/18 12:59:23;;;;;;;2.83;2.63;;;;;;;;;;4914871;29;20146;-75
2024/04/18 13:02:03;;;;;;;2.85;2.72;;;;;;;;;;4939593;29;20138;-73
2024/04/18 13:04:38;;;;;;;3.20;2.90;;;;;;;;;;4931745;29;20575;-74
2024/04/18 13:07:05;;;;;;;2.90;2.70;;;;;;;;;;4925580;29;20186;-74
2024/04/18 13:09:38;;;;;;;2.85;2.65;;;;;;;;;;4937943;29;20035;-75
2024/04/18 13:12:08;;;;;;;3.45;3.15;;;;;;;;;;4939180;29;20039;-74
2024/04/18 13:14:52;;;;;;;2.60;2.50;;;;;;;;;;4918714;29;20508;-75
2024/04/18 13:17:19;;;;;;;3.08;2.78;;;;;;;;;;4898355;29;20134;-73
2024/04/18 13:19:51;;;;;;;3.00;2.80;;;;;;;;;;4919253;29;20166;-76
2024/04/18 13:22:49;;;;;;;3.25;3.00;;;;;;;;;;4919503;29;20043;-76
2024/04/18 13:25:15;;;;;;;3.17;2.97;;;;;;;;;;4931853;29;20047;-72
2024/04/18 13:27:42;;;;;;;2.75;2.55;;;;;;;;;;4914835;28;20041;-72
2024/04/18 13:30:31;;;;;;;3.50;2.90;;;;;;;;;;4935011;29;20047;-72
2024/04/18 13:36:02;;;;;;;3.42;3.03;;;;;;;;;;5496089;23;20020;-76
2024/04/18 13:38:50;;;;;;;3.45;3.25;;;;;;;;;;5005354;28;20033;-85
2024/04/18 13:41:38;;;;;;;3.40;3.20;;;;;;;;;;5083537;23;20133;-84
2024/04/18 13:44:15;;;;;;;3.72;3.40;;;;;;;;;;5003468;28;20090;-84
2024/04/18 13:46:41;;;;;;;3.60;3.40;;;;;;;;;;4999528;28;20037;-83
2024/04/18 13:49:09;;;;;;;4.00;3.70;;;;;;;;;;4985005;28;20062;-84
2024/04/18 13:51:51;;;;;;;4.30;3.97;;;;;;;;;;4998034;28;20034;-84
2024/04/18 13:54:34;;;;;;;4.07;3.78;;;;;;;;;;4975357;28;20050;-82
2024/04/18 13:57:10;;;;;;;3.67;3.47;;;;;;;;;;4998065;28;20071;-82
2024/04/18 13:59:40;;;;;;;4.18;3.88;;;;;;;;;;4993144;28;20129;-82
2024/04/18 14:02:26;;;;;;;4.70;4.40;;;;;;;;;;4990261;28;20058;-83
2024/04/18 14:05:17;;;;;;;5.20;4.80;;;;;;;;;;4986875;28;20023;-82
2024/04/18 14:08:05;;;;;;;4.90;4.35;;;;;;;;;;4990098;28;20103;-84
2024/04/18 14:10:32;;;;;;;5.68;4.65;;;;;;;;;;4969480;28;20051;-84
2024/04/18 14:13:20;;;;;;;6.30;5.15;;;;;;;;;;4992584;28;20058;-84
2024/04/18 14:18:57;;;;;;;5.88;5.47;;;;;;;;;;4997295;28;20023;-84
2024/04/18 14:34:05;;;;;;;6.68;6.18;;;;;;;;;;5093892;23;20065;-87
2024/04/18 14:36:46;;;;;;;7.15;6.65;;;;;;;;;;5020359;28;20040;-82
2024/04/18 14:39:41;;;;;;;8.38;7.68;;;;;;;;;;4996988;28;20149;-81
2024/04/18 14:42:34;;;;;;;5.32;4.95;;;;;;;;;;4970471;28;20049;-82
2024/04/18 14:45:01;;;;;;;6.28;5.65;;;;;;;;;;4944079;28;20116;-82
2024/04/18 14:47:29;;;;;;;8.18;7.60;;;;;;;;;;4978690;28;20766;-81
2024/04/18 14:50:00;;;;;;;7.75;7.15;;;;;;;;;;4977094;28;20046;-82
2024/04/18 14:52:34;;;;;;;7.65;6.97;;;;;;;;;;4945084;28;20639;-82
2024/04/18 14:55:27;;;;;;;10.13;9.48;;;;;;;;;;4974531;28;20100;-84
2024/04/18 14:58:11;;;;;;;8.13;7.50;;;;;;;;;;4975851;28;20076;-82
2024/04/18 15:01:06;;;;;;;7.63;7.03;;;;;;;;;;4972204;28;20034;-82
2024/04/18 15:03:33;;;;;;;7.13;6.68;;;;;;;;;;4927367;28;20078;-85
2024/04/18 15:06:16;;;;;;;7.03;6.30;;;;;;;;;;4962568;28;20038;-81
2024/04/18 15:09:11;;;;;;;9.60;8.40;;;;;;;;;;4950178;28;20050;-81
2024/04/18 15:11:55;;;;;;;6.53;6.03;;;;;;;;;;4947230;28;20049;-82
2024/04/18 15:17:20;;;;;;;6.13;5.72;;;;;;;;;;4996476;28;20062;-82
2024/04/18 15:19:46;;;;;;;6.22;5.82;;;;;;;;;;4948900;28;20089;-81
2024/04/18 15:22:31;;;;;;;4.57;4.28;;;;;;;;;;4954080;28;20169;-81
2024/04/18 15:25:17;;;;;;;7.55;6.70;;;;;;;;;;4970064;28;20094;-82
2024/04/18 15:28:01;;;;;;;6.03;5.55;;;;;;;;;;4940887;28;20042;-82
2024/04/18 15:30:27;;;;;;;8.25;7.55;;;;;;;;;;4938627;28;20065;-82
2024/04/18 15:33:13;;;;;;;8.27;7.72;;;;;;;;;;4937066;28;20386;-82
2024/04/18 15:35:42;;;;;;;6.47;5.97;;;;;;;;;;4937262;28;20502;-82
2024/04/18 15:38:15;;;;;;;6.30;5.80;;;;;;;;;;4924161;28;20070;-82
2024/04/18 15:41:01;;;;;;;7.25;6.75;;;;;;;;;;4938711;28;20517;-82